Fairplay, Maryland
Current Conditions -  °F | °C
As of 1:53 AM on Sunday 26 Oct 2014 (Local Time) from KHGR Reporting Station
Clear Clear  
Wind Chill: 62°   Ceiling: Unl
Heat Index: 62°   Visibility: 10mi
Dew Point: 40°   Wind: 17mph
Humidity: 44%   Direction: 300°WNW
Pressure: 29.67"   Gusts: 29mph
Location:  39.54°N, 77.75°W
Report Text: KHGR 260553Z AUTO 30015G25KT 10SM CLR 17/04 A2967 RMK AO2 PK WND 29028/0511 SLP055 T01670044 10183 20161 56005
Loading
Personal Weather Stations






























Interactive Weather Map New forecast layout! Learn more

10-Day Weather Forecast

Advertisements
Track Severe Weather on mobile